sensor_id;sensor_type;location;lat;lon;timestamp;pressure;altitude;pressure_sealevel;temperature;humidity
21111;BME280;10713;51.912;4.494;2023-05-31T00:00:03;102711.88;;;12.07;100.00
21111;BME280;10713;51.912;4.494;2023-05-31T00:02:29;102707.66;;;11.95;100.00
21111;BME280;10713;51.912;4.494;2023-05-31T00:04:54;102701.56;;;11.91;100.00
21111;BME280;10713;51.912;4.494;2023-05-31T00:07:20;102698.97;;;11.87;100.00
21111;BME280;10713;51.912;4.494;2023-05-31T00:09:45;102703.34;;;11.89;100.00
21111;BME280;10713;51.912;4.494;2023-05-31T00:12:10;102713.09;;;11.86;100.00
21111;BME280;10713;51.912;4.494;2023-05-31T00:14:36;102708.72;;;11.82;100.00
21111;BME280;10713;51.912;4.494;2023-05-31T00:17:01;102718.47;;;11.78;100.00
21111;BME280;10713;51.912;4.494;2023-05-31T00:19:26;102704.41;;;11.75;100.00
21111;BME280;10713;51.912;4.494;2023-05-31T00:21:52;102702.72;;;11.69;100.00
21111;BME280;10713;51.912;4.494;2023-05-31T00:24:17;102697.44;;;11.69;100.00
21111;BME280;10713;51.912;4.494;2023-05-31T00:26:43;102707.06;;;11.73;100.00
21111;BME280;10713;51.912;4.494;2023-05-31T00:29:08;102704.47;;;11.71;100.00
21111;BME280;10713;51.912;4.494;2023-05-31T00:31:34;102715.94;;;11.69;100.00
21111;BME280;10713;51.912;4.494;2023-05-31T00:33:59;102710.66;;;11.69;100.00
21111;BME280;10713;51.912;4.494;2023-05-31T00:36:24;102712.47;;;11.65;100.00
21111;BME280;10713;51.912;4.494;2023-05-31T00:38:50;102715.22;;;11.59;100.00
21111;BME280;10713;51.912;4.494;2023-05-31T00:41:15;102706.47;;;11.54;100.00
21111;BME280;10713;51.912;4.494;2023-05-31T00:43:42;102702.97;;;11.52;100.00
21111;BME280;10713;51.912;4.494;2023-05-31T00:46:11;102703.81;;;11.54;100.00
21111;BME280;10713;51.912;4.494;2023-05-31T00:48:39;102709.97;;;11.53;100.00
21111;BME280;10713;51.912;4.494;2023-05-31T00:51:07;102707.34;;;11.53;100.00
21111;BME280;10713;51.912;4.494;2023-05-31T00:53:33;102707.31;;;11.56;100.00
21111;BME280;10713;51.912;4.494;2023-05-31T00:55:59;102697.56;;;11.58;100.00
21111;BME280;10713;51.912;4.494;2023-05-31T00:58:26;102705.47;;;11.61;100.00
21111;BME280;10713;51.912;4.494;2023-05-31T01:00:51;102702.00;;;11.59;100.00
21111;BME280;10713;51.912;4.494;2023-05-31T01:03:20;102699.34;;;11.59;100.00
21111;BME280;10713;51.912;4.494;2023-05-31T01:05:46;102706.38;;;11.62;100.00
21111;BME280;10713;51.912;4.494;2023-05-31T01:08:11;102716.88;;;11.66;100.00
21111;BME280;10713;51.912;4.494;2023-05-31T01:10:39;102707.19;;;11.65;100.00
21111;BME280;10713;51.912;4.494;2023-05-31T01:13:15;102703.63;;;11.66;100.00
21111;BME280;10713;51.912;4.494;2023-05-31T01:15:50;102693.88;;;11.70;100.00
21111;BME280;10713;51.912;4.494;2023-05-31T01:18:35;102702.78;;;11.64;100.00
21111;BME280;10713;51.912;4.494;2023-05-31T01:21:04;102707.25;;;11.61;100.00
21111;BME280;10713;51.912;4.494;2023-05-31T01:28:55;102703.94;;;11.43;100.00
21111;BME280;10713;51.912;4.494;2023-05-31T01:31:21;102707.63;;;11.33;100.00
21111;BME280;10713;51.912;4.494;2023-05-31T01:33:48;102704.16;;;11.26;100.00
21111;BME280;10713;51.912;4.494;2023-05-31T01:36:14;102701.56;;;11.23;100.00
21111;BME280;10713;51.912;4.494;2023-05-31T01:38:40;102708.63;;;11.23;100.00
21111;BME280;10713;51.912;4.494;2023-05-31T01:41:06;102715.69;;;11.21;100.00
21111;BME280;10713;51.912;4.494;2023-05-31T01:43:34;102702.56;;;11.15;100.00
21111;BME280;10713;51.912;4.494;2023-05-31T01:46:01;102706.06;;;11.15;100.00
21111;BME280;10713;51.912;4.494;2023-05-31T01:48:27;102698.22;;;11.09;100.00
21111;BME280;10713;51.912;4.494;2023-05-31T01:50:54;102694.66;;;11.13;100.00
21111;BME280;10713;51.912;4.494;2023-05-31T01:53:21;102700.78;;;11.15;100.00
21111;BME280;10713;51.912;4.494;2023-05-31T01:55:47;102704.38;;;11.11;100.00
21111;BME280;10713;51.912;4.494;2023-05-31T01:58:13;102704.28;;;11.16;100.00
21111;BME280;10713;51.912;4.494;2023-05-31T02:00:40;102712.22;;;11.17;100.00
21111;BME280;10713;51.912;4.494;2023-05-31T02:03:06;102698.09;;;11.18;100.00
21111;BME280;10713;51.912;4.494;2023-05-31T02:05:32;102698.97;;;11.22;100.00
21111;BME280;10713;51.912;4.494;2023-05-31T02:07:57;102698.97;;;11.22;100.00
21111;BME280;10713;51.912;4.494;2023-05-31T02:10:23;102698.19;;;11.12;100.00
21111;BME280;10713;51.912;4.494;2023-05-31T02:12:48;102706.22;;;11.03;100.00
21111;BME280;10713;51.912;4.494;2023-05-31T02:15:18;102701.00;;;10.95;100.00
21111;BME280;10713;51.912;4.494;2023-05-31T02:17:45;102699.31;;;10.91;100.00
21111;BME280;10713;51.912;4.494;2023-05-31T02:20:14;102700.22;;;10.90;100.00
21111;BME280;10713;51.912;4.494;2023-05-31T02:22:40;102702.84;;;10.89;100.00
21111;BME280;10713;51.912;4.494;2023-05-31T02:25:07;102697.53;;;10.92;100.00
21111;BME280;10713;51.912;4.494;2023-05-31T02:27:33;102692.28;;;10.90;100.00
21111;BME280;10713;51.912;4.494;2023-05-31T02:29:59;102694.81;;;10.98;100.00
21111;BME280;10713;51.912;4.494;2023-05-31T02:32:24;102698.41;;;10.94;100.00
21111;BME280;10713;51.912;4.494;2023-05-31T02:34:50;102698.41;;;10.92;100.00
21111;BME280;10713;51.912;4.494;2023-05-31T02:37:15;102693.13;;;10.94;100.00
21111;BME280;10713;51.912;4.494;2023-05-31T02:39:41;102693.00;;;11.01;100.00
21111;BME280;10713;51.912;4.494;2023-05-31T02:42:06;102693.00;;;11.03;100.00
21111;BME280;10713;51.912;4.494;2023-05-31T02:44:32;102690.50;;;10.91;100.00
21111;BME280;10713;51.912;4.494;2023-05-31T02:46:57;102695.84;;;10.88;100.00
21111;BME280;10713;51.912;4.494;2023-05-31T02:49:22;102703.78;;;10.81;100.00
21111;BME280;10713;51.912;4.494;2023-05-31T02:51:48;102703.81;;;10.78;100.00
21111;BME280;10713;51.912;4.494;2023-05-31T02:54:13;102703.81;;;10.78;100.00
21111;BME280;10713;51.912;4.494;2023-05-31T02:56:38;102688.84;;;10.80;100.00
21111;BME280;10713;51.912;4.494;2023-05-31T02:59:04;102686.22;;;10.80;100.00
21111;BME280;10713;51.912;4.494;2023-05-31T03:01:29;102688.94;;;10.70;100.00
21111;BME280;10713;51.912;4.494;2023-05-31T03:03:54;102695.16;;;10.64;100.00
21111;BME280;10713;51.912;4.494;2023-05-31T03:06:20;102686.38;;;10.65;100.00
21111;BME280;10713;51.912;4.494;2023-05-31T03:08:45;102687.22;;;10.69;100.00
21111;BME280;10713;51.912;4.494;2023-05-31T03:11:11;102681.09;;;10.65;100.00
21111;BME280;10713;51.912;4.494;2023-05-31T03:13:36;102676.63;;;10.73;100.00
21111;BME280;10713;51.912;4.494;2023-05-31T03:16:01;102680.91;;;10.82;100.00
21111;BME280;10713;51.912;4.494;2023-05-31T03:18:27;102691.44;;;10.85;100.00
21111;BME280;10713;51.912;4.494;2023-05-31T03:20:52;102687.91;;;10.86;100.00
21111;BME280;10713;51.912;4.494;2023-05-31T03:23:18;102686.13;;;10.87;100.00
21111;BME280;10713;51.912;4.494;2023-05-31T03:25:44;102680.84;;;10.87;100.00
21111;BME280;10713;51.912;4.494;2023-05-31T03:28:10;102675.59;;;10.83;100.00
21111;BME280;10713;51.912;4.494;2023-05-31T03:30:35;102673.03;;;10.79;100.00
21111;BME280;10713;51.912;4.494;2023-05-31T03:33:01;102663.38;;;10.76;100.00
21111;BME280;10713;51.912;4.494;2023-05-31T03:35:27;102665.06;;;10.80;100.00
21111;BME280;10713;51.912;4.494;2023-05-31T03:37:53;102675.59;;;10.85;100.00
21111;BME280;10713;51.912;4.494;2023-05-31T03:40:19;102673.78;;;10.89;100.00
21111;BME280;10713;51.912;4.494;2023-05-31T03:42:45;102669.38;;;10.91;100.00
21111;BME280;10713;51.912;4.494;2023-05-31T03:45:10;102667.63;;;10.88;100.00
21111;BME280;10713;51.912;4.494;2023-05-31T03:47:35;102669.31;;;10.95;100.00
21111;BME280;10713;51.912;4.494;2023-05-31T03:50:03;102663.00;;;11.07;100.00
21111;BME280;10713;51.912;4.494;2023-05-31T03:52:29;102661.09;;;11.20;100.00
21111;BME280;10713;51.912;4.494;2023-05-31T03:54:55;102668.03;;;11.27;100.00
21111;BME280;10713;51.912;4.494;2023-05-31T03:57:20;102676.91;;;11.23;100.00
21111;BME280;10713;51.912;4.494;2023-05-31T03:59:45;102669.78;;;11.28;100.00
21111;BME280;10713;51.912;4.494;2023-05-31T04:02:11;102672.31;;;11.36;100.00
21111;BME280;10713;51.912;4.494;2023-05-31T04:04:36;102669.44;;;11.54;100.00
21111;BME280;10713;51.912;4.494;2023-05-31T04:07:01;102680.44;;;11.88;100.00
21111;BME280;10713;51.912;4.494;2023-05-31T04:09:27;102682.75;;;12.08;100.00
21111;BME280;10713;51.912;4.494;2023-05-31T04:11:52;102680.47;;;12.39;100.00
21111;BME280;10713;51.912;4.494;2023-05-31T04:14:17;102670.00;;;12.80;100.00
21111;BME280;10713;51.912;4.494;2023-05-31T04:16:43;102673.88;;;13.07;100.00
21111;BME280;10713;51.912;4.494;2023-05-31T04:19:08;102666.38;;;13.27;100.00
21111;BME280;10713;51.912;4.494;2023-05-31T04:21:33;102673.00;;;13.87;100.00
21111;BME280;10713;51.912;4.494;2023-05-31T04:23:59;102676.13;;;14.05;100.00
21111;BME280;10713;51.912;4.494;2023-05-31T04:26:25;102667.78;;;14.20;100.00
21111;BME280;10713;51.912;4.494;2023-05-31T04:28:51;102676.97;;;14.07;100.00
21111;BME280;10713;51.912;4.494;2023-05-31T04:31:20;102679.69;;;14.04;100.00
21111;BME280;10713;51.912;4.494;2023-05-31T04:33:45;102670.41;;;13.84;100.00
21111;BME280;10713;51.912;4.494;2023-05-31T04:36:11;102683.34;;;13.62;100.00
21111;BME280;10713;51.912;4.494;2023-05-31T04:38:37;102681.66;;;13.16;100.00
21111;BME280;10713;51.912;4.494;2023-05-31T04:41:04;102675.44;;;13.17;100.00
21111;BME280;10713;51.912;4.494;2023-05-31T04:43:30;102678.22;;;13.53;100.00
21111;BME280;10713;51.912;4.494;2023-05-31T04:45:55;102686.56;;;14.12;100.00
21111;BME280;10713;51.912;4.494;2023-05-31T04:48:21;102674.59;;;14.97;100.00
21111;BME280;10713;51.912;4.494;2023-05-31T04:50:47;102670.41;;;15.77;100.00
21111;BME280;10713;51.912;4.494;2023-05-31T04:53:13;102658.75;;;16.35;100.00
21111;BME280;10713;51.912;4.494;2023-05-31T04:55:39;102644.69;;;16.30;100.00
21111;BME280;10713;51.912;4.494;2023-05-31T04:58:04;102643.06;;;16.77;100.00
21111;BME280;10713;51.912;4.494;2023-05-31T05:00:30;102641.69;;;17.36;100.00
21111;BME280;10713;51.912;4.494;2023-05-31T05:02:57;102635.00;;;17.70;100.00
21111;BME280;10713;51.912;4.494;2023-05-31T05:05:22;102635.63;;;17.76;100.00
21111;BME280;10713;51.912;4.494;2023-05-31T05:07:48;102637.06;;;17.85;100.00
21111;BME280;10713;51.912;4.494;2023-05-31T05:10:14;102627.03;;;18.12;100.00
21111;BME280;10713;51.912;4.494;2023-05-31T05:12:40;102629.84;;;18.50;100.00
21111;BME280;10713;51.912;4.494;2023-05-31T05:15:06;102633.91;;;18.79;100.00
21111;BME280;10713;51.912;4.494;2023-05-31T05:17:31;102628.81;;;18.73;100.00
21111;BME280;10713;51.912;4.494;2023-05-31T05:19:56;102629.22;;;18.64;100.00
21111;BME280;10713;51.912;4.494;2023-05-31T05:22:22;102636.91;;;18.72;100.00
21111;BME280;10713;51.912;4.494;2023-05-31T05:24:48;102636.53;;;18.81;100.00
21111;BME280;10713;51.912;4.494;2023-05-31T05:27:13;102624.94;;;19.37;100.00
21111;BME280;10713;51.912;4.494;2023-05-31T05:29:38;102626.81;;;19.73;100.00
21111;BME280;10713;51.912;4.494;2023-05-31T05:32:04;102628.50;;;19.93;100.00
21111;BME280;10713;51.912;4.494;2023-05-31T05:34:30;102625.44;;;20.18;100.00
21111;BME280;10713;51.912;4.494;2023-05-31T05:36:55;102612.22;;;20.48;100.00
21111;BME280;10713;51.912;4.494;2023-05-31T05:39:22;102626.31;;;20.36;100.00
21111;BME280;10713;51.912;4.494;2023-05-31T05:41:47;102628.59;;;20.43;100.00
21111;BME280;10713;51.912;4.494;2023-05-31T05:44:12;102622.09;;;20.65;100.00
21111;BME280;10713;51.912;4.494;2023-05-31T05:46:38;102628.28;;;21.32;100.00
21111;BME280;10713;51.912;4.494;2023-05-31T05:49:05;102626.28;;;21.51;100.00
21111;BME280;10713;51.912;4.494;2023-05-31T05:51:31;102623.22;;;21.89;100.00
21111;BME280;10713;51.912;4.494;2023-05-31T05:53:56;102628.44;;;22.07;100.00
21111;BME280;10713;51.912;4.494;2023-05-31T05:56:21;102627.69;;;21.58;100.00
21111;BME280;10713;51.912;4.494;2023-05-31T05:58:47;102630.00;;;21.33;100.00
21111;BME280;10713;51.912;4.494;2023-05-31T06:01:13;102620.44;;;21.11;100.00
21111;BME280;10713;51.912;4.494;2023-05-31T06:03:49;102626.53;;;21.15;100.00
21111;BME280;10713;51.912;4.494;2023-05-31T06:06:14;102620.84;;;21.99;100.00
21111;BME280;10713;51.912;4.494;2023-05-31T06:08:40;102624.44;;;22.73;100.00
21111;BME280;10713;51.912;4.494;2023-05-31T06:11:05;102622.91;;;22.97;100.00
21111;BME280;10713;51.912;4.494;2023-05-31T06:13:30;102626.16;;;22.59;100.00
21111;BME280;10713;51.912;4.494;2023-05-31T06:15:57;102617.69;;;22.80;100.00
21111;BME280;10713;51.912;4.494;2023-05-31T06:18:22;102615.59;;;23.41;100.00
21111;BME280;10713;51.912;4.494;2023-05-31T06:20:47;102615.44;;;24.11;100.00
21111;BME280;10713;51.912;4.494;2023-05-31T06:23:13;102614.31;;;24.79;100.00
21111;BME280;10713;51.912;4.494;2023-05-31T06:25:38;102619.13;;;24.86;94.97
21111;BME280;10713;51.912;4.494;2023-05-31T06:28:04;102617.56;;;24.58;91.91
21111;BME280;10713;51.912;4.494;2023-05-31T06:30:29;102619.97;;;24.10;91.07
21111;BME280;10713;51.912;4.494;2023-05-31T06:32:55;102626.06;;;23.59;96.22
21111;BME280;10713;51.912;4.494;2023-05-31T06:35:21;102628.84;;;23.31;100.00
21111;BME280;10713;51.912;4.494;2023-05-31T06:37:48;102626.88;;;24.01;94.49
21111;BME280;10713;51.912;4.494;2023-05-31T06:40:13;102627.47;;;24.58;87.52
21111;BME280;10713;51.912;4.494;2023-05-31T06:42:39;102620.44;;;24.30;88.71
21111;BME280;10713;51.912;4.494;2023-05-31T06:45:05;102621.22;;;24.70;88.48
21111;BME280;10713;51.912;4.494;2023-05-31T06:47:30;102621.28;;;25.07;86.42
21111;BME280;10713;51.912;4.494;2023-05-31T06:49:56;102621.81;;;25.49;81.54
21111;BME280;10713;51.912;4.494;2023-05-31T06:52:21;102616.66;;;25.81;75.90
21111;BME280;10713;51.912;4.494;2023-05-31T06:54:46;102610.91;;;26.21;72.56
21111;BME280;10713;51.912;4.494;2023-05-31T06:57:14;102614.22;;;26.71;68.11
21111;BME280;10713;51.912;4.494;2023-05-31T06:59:40;102611.00;;;26.77;65.50
21111;BME280;10713;51.912;4.494;2023-05-31T07:02:06;102617.91;;;26.92;63.98
21111;BME280;10713;51.912;4.494;2023-05-31T07:04:31;102608.78;;;27.05;62.42
21111;BME280;10713;51.912;4.494;2023-05-31T07:06:57;102606.13;;;27.48;60.36
21111;BME280;10713;51.912;4.494;2023-05-31T07:09:22;102604.44;;;27.68;59.24
21111;BME280;10713;51.912;4.494;2023-05-31T07:11:47;102605.69;;;26.98;59.22
21111;BME280;10713;51.912;4.494;2023-05-31T07:14:13;102611.44;;;26.26;61.21
21111;BME280;10713;51.912;4.494;2023-05-31T07:16:38;102604.41;;;26.23;60.41
21111;BME280;10713;51.912;4.494;2023-05-31T07:19:04;102607.19;;;26.80;59.12
21111;BME280;10713;51.912;4.494;2023-05-31T07:21:29;102611.84;;;27.11;58.14
21111;BME280;10713;51.912;4.494;2023-05-31T07:23:55;102598.56;;;27.08;56.83
21111;BME280;10713;51.912;4.494;2023-05-31T07:26:21;102601.38;;;26.95;56.74
21111;BME280;10713;51.912;4.494;2023-05-31T07:28:47;102603.03;;;26.76;56.10
21111;BME280;10713;51.912;4.494;2023-05-31T07:31:13;102601.63;;;26.47;57.18
21111;BME280;10713;51.912;4.494;2023-05-31T07:33:41;102601.97;;;26.32;58.38
21111;BME280;10713;51.912;4.494;2023-05-31T07:36:06;102602.63;;;26.80;57.43
21111;BME280;10713;51.912;4.494;2023-05-31T07:38:32;102599.97;;;26.11;57.10
21111;BME280;10713;51.912;4.494;2023-05-31T07:40:57;102604.56;;;25.38;59.00
21111;BME280;10713;51.912;4.494;2023-05-31T07:43:25;102605.69;;;25.10;60.01
21111;BME280;10713;51.912;4.494;2023-05-31T07:45:51;102600.81;;;25.28;60.87
21111;BME280;10713;51.912;4.494;2023-05-31T07:48:19;102593.50;;;25.90;59.13
21111;BME280;10713;51.912;4.494;2023-05-31T07:50:45;102585.03;;;25.94;58.71
21111;BME280;10713;51.912;4.494;2023-05-31T07:53:12;102583.94;;;25.97;57.71
21111;BME280;10713;51.912;4.494;2023-05-31T07:55:37;102581.34;;;26.06;57.58
21111;BME280;10713;51.912;4.494;2023-05-31T07:58:03;102582.81;;;26.68;56.46
21111;BME280;10713;51.912;4.494;2023-05-31T08:00:28;102578.31;;;27.35;54.73
21111;BME280;10713;51.912;4.494;2023-05-31T08:02:54;102587.88;;;27.50;53.72
21111;BME280;10713;51.912;4.494;2023-05-31T08:05:20;102581.97;;;25.99;55.57
21111;BME280;10713;51.912;4.494;2023-05-31T08:07:46;102575.38;;;25.79;56.54
21111;BME280;10713;51.912;4.494;2023-05-31T08:10:12;102567.16;;;26.27;57.25
21111;BME280;10713;51.912;4.494;2023-05-31T08:12:37;102572.03;;;27.12;55.14
21111;BME280;10713;51.912;4.494;2023-05-31T08:15:03;102564.38;;;28.14;52.90
21111;BME280;10713;51.912;4.494;2023-05-31T08:17:29;102575.09;;;28.67;50.77
21111;BME280;10713;51.912;4.494;2023-05-31T08:19:54;102573.50;;;28.13;50.33
21111;BME280;10713;51.912;4.494;2023-05-31T08:22:20;102584.75;;;27.87;50.64
21111;BME280;10713;51.912;4.494;2023-05-31T08:24:46;102573.72;;;28.00;50.03
21111;BME280;10713;51.912;4.494;2023-05-31T08:27:11;102569.88;;;28.02;50.08
21111;BME280;10713;51.912;4.494;2023-05-31T08:29:36;102570.44;;;27.96;50.12
21111;BME280;10713;51.912;4.494;2023-05-31T08:32:02;102574.00;;;27.10;50.54
21111;BME280;10713;51.912;4.494;2023-05-31T08:34:27;102572.31;;;26.30;52.28
21111;BME280;10713;51.912;4.494;2023-05-31T08:36:52;102568.00;;;26.27;53.25
21111;BME280;10713;51.912;4.494;2023-05-31T08:39:18;102573.19;;;26.87;51.97
21111;BME280;10713;51.912;4.494;2023-05-31T08:42:04;102573.91;;;27.00;51.03
21111;BME280;10713;51.912;4.494;2023-05-31T08:44:32;102581.13;;;25.98;53.07
21111;BME280;10713;51.912;4.494;2023-05-31T08:47:27;102575.22;;;25.08;55.76
21111;BME280;10713;51.912;4.494;2023-05-31T08:49:58;102567.53;;;25.15;57.14
21111;BME280;10713;51.912;4.494;2023-05-31T08:52:25;102562.56;;;25.09;58.56
21111;BME280;10713;51.912;4.494;2023-05-31T08:54:51;102556.88;;;25.61;57.53
21111;BME280;10713;51.912;4.494;2023-05-31T08:57:18;102556.69;;;26.22;55.60
21111;BME280;10713;51.912;4.494;2023-05-31T08:59:45;102564.31;;;26.40;54.19
21111;BME280;10713;51.912;4.494;2023-05-31T09:02:11;102556.41;;;25.44;55.02
21111;BME280;10713;51.912;4.494;2023-05-31T09:04:39;102562.75;;;25.55;55.41
21111;BME280;10713;51.912;4.494;2023-05-31T09:07:05;102561.31;;;25.74;56.45
21111;BME280;10713;51.912;4.494;2023-05-31T09:09:30;102555.81;;;26.22;55.91
21111;BME280;10713;51.912;4.494;2023-05-31T09:11:55;102553.63;;;26.83;54.62
21111;BME280;10713;51.912;4.494;2023-05-31T09:14:23;102559.47;;;27.33;52.86
21111;BME280;10713;51.912;4.494;2023-05-31T09:16:49;102555.94;;;27.22;52.51
21111;BME280;10713;51.912;4.494;2023-05-31T09:19:15;102551.91;;;26.71;52.53
21111;BME280;10713;51.912;4.494;2023-05-31T09:21:42;102539.47;;;26.68;53.81
21111;BME280;10713;51.912;4.494;2023-05-31T09:24:08;102549.50;;;27.23;53.13
21111;BME280;10713;51.912;4.494;2023-05-31T09:26:45;102548.69;;;26.88;52.82
21111;BME280;10713;51.912;4.494;2023-05-31T09:29:11;102553.25;;;27.43;51.97
21111;BME280;10713;51.912;4.494;2023-05-31T09:31:37;102538.38;;;28.11;49.85
21111;BME280;10713;51.912;4.494;2023-05-31T09:34:02;102543.53;;;28.14;48.37
21111;BME280;10713;51.912;4.494;2023-05-31T09:36:28;102540.88;;;28.03;48.67
21111;BME280;10713;51.912;4.494;2023-05-31T09:38:59;102550.63;;;28.05;47.90
21111;BME280;10713;51.912;4.494;2023-05-31T09:41:26;102540.63;;;27.85;48.62
21111;BME280;10713;51.912;4.494;2023-05-31T09:43:52;102533.66;;;28.13;48.50
21111;BME280;10713;51.912;4.494;2023-05-31T09:46:19;102551.22;;;27.88;47.81
21111;BME280;10713;51.912;4.494;2023-05-31T09:48:46;102535.16;;;27.64;48.76
21111;BME280;10713;51.912;4.494;2023-05-31T09:51:21;102545.28;;;27.30;47.91
21111;BME280;10713;51.912;4.494;2023-05-31T09:53:46;102539.84;;;26.30;50.98
21111;BME280;10713;51.912;4.494;2023-05-31T09:56:18;102553.41;;;25.95;53.01
21111;BME280;10713;51.912;4.494;2023-05-31T09:58:43;102539.50;;;25.53;55.29
21111;BME280;10713;51.912;4.494;2023-05-31T10:01:09;102536.75;;;25.42;57.08
21111;BME280;10713;51.912;4.494;2023-05-31T10:03:35;102534.22;;;25.87;56.83
21111;BME280;10713;51.912;4.494;2023-05-31T10:06:04;102526.66;;;26.37;55.73
21111;BME280;10713;51.912;4.494;2023-05-31T10:08:30;102527.75;;;27.02;53.21
21111;BME280;10713;51.912;4.494;2023-05-31T10:10:58;102531.75;;;27.83;50.76
21111;BME280;10713;51.912;4.494;2023-05-31T10:13:27;102528.84;;;27.43;50.13
21111;BME280;10713;51.912;4.494;2023-05-31T10:15:54;102526.28;;;26.86;51.67
21111;BME280;10713;51.912;4.494;2023-05-31T10:18:21;102520.44;;;27.13;51.86
21111;BME280;10713;51.912;4.494;2023-05-31T10:20:58;102527.28;;;26.74;53.37
21111;BME280;10713;51.912;4.494;2023-05-31T10:23:24;102521.34;;;26.46;53.15
21111;BME280;10713;51.912;4.494;2023-05-31T10:28:27;102516.00;;;24.81;61.67
21111;BME280;10713;51.912;4.494;2023-05-31T10:30:54;102513.94;;;25.09;61.43
21111;BME280;10713;51.912;4.494;2023-05-31T10:33:20;102513.28;;;25.18;62.08
21111;BME280;10713;51.912;4.494;2023-05-31T10:35:46;102515.53;;;25.24;61.78
21111;BME280;10713;51.912;4.494;2023-05-31T10:38:12;102498.19;;;25.51;61.73
21111;BME280;10713;51.912;4.494;2023-05-31T10:40:47;102498.84;;;26.12;59.21
21111;BME280;10713;51.912;4.494;2023-05-31T10:45:43;102517.19;;;26.20;56.24
21111;BME280;10713;51.912;4.494;2023-05-31T10:48:38;102500.69;;;26.12;57.26
21111;BME280;10713;51.912;4.494;2023-05-31T10:51:04;102499.59;;;26.14;58.45
21111;BME280;10713;51.912;4.494;2023-05-31T10:53:34;102491.22;;;26.28;58.41
21111;BME280;10713;51.912;4.494;2023-05-31T10:56:21;102496.75;;;25.93;58.13
21111;BME280;10713;51.912;4.494;2023-05-31T10:58:50;102497.56;;;25.82;58.96
21111;BME280;10713;51.912;4.494;2023-05-31T11:01:18;102499.03;;;25.03;62.55
21111;BME280;10713;51.912;4.494;2023-05-31T11:03:51;102491.22;;;25.11;63.30
21111;BME280;10713;51.912;4.494;2023-05-31T11:06:31;102484.06;;;25.47;61.99
21111;BME280;10713;51.912;4.494;2023-05-31T11:09:11;102476.72;;;26.18;59.11
21111;BME280;10713;51.912;4.494;2023-05-31T11:14:22;102485.41;;;26.67;57.18
21111;BME280;10713;51.912;4.494;2023-05-31T11:19:20;102470.06;;;26.11;58.92
21111;BME280;10713;51.912;4.494;2023-05-31T11:21:53;102483.81;;;25.86;58.76
21111;BME280;10713;51.912;4.494;2023-05-31T11:27:05;102471.94;;;25.64;61.12
21111;BME280;10713;51.912;4.494;2023-05-31T11:32:10;102461.69;;;25.45;62.68
21111;BME280;10713;51.912;4.494;2023-05-31T11:34:51;102474.00;;;25.60;62.43
21111;BME280;10713;51.912;4.494;2023-05-31T11:37:20;102462.66;;;25.44;63.31
21111;BME280;10713;51.912;4.494;2023-05-31T11:39:46;102472.44;;;25.34;63.32
21111;BME280;10713;51.912;4.494;2023-05-31T11:42:13;102465.53;;;24.82;64.95
21111;BME280;10713;51.912;4.494;2023-05-31T11:44:43;102455.19;;;25.00;64.13
21111;BME280;10713;51.912;4.494;2023-05-31T11:47:11;102455.94;;;25.26;61.97
21111;BME280;10713;51.912;4.494;2023-05-31T11:49:41;102452.38;;;25.25;61.40
21111;BME280;10713;51.912;4.494;2023-05-31T11:52:07;102447.78;;;25.14;61.12
21111;BME280;10713;51.912;4.494;2023-05-31T11:54:32;102450.72;;;24.87;62.22
21111;BME280;10713;51.912;4.494;2023-05-31T11:57:05;102448.63;;;24.67;63.84
21111;BME280;10713;51.912;4.494;2023-05-31T11:59:35;102447.91;;;24.52;64.51
21111;BME280;10713;51.912;4.494;2023-05-31T12:02:02;102443.19;;;24.30;66.85
21111;BME280;10713;51.912;4.494;2023-05-31T12:04:33;102440.81;;;24.25;67.75
21111;BME280;10713;51.912;4.494;2023-05-31T12:06:59;102442.38;;;24.41;66.32
21111;BME280;10713;51.912;4.494;2023-05-31T12:09:25;102444.81;;;24.69;64.95
21111;BME280;10713;51.912;4.494;2023-05-31T12:11:52;102437.19;;;24.63;64.80
21111;BME280;10713;51.912;4.494;2023-05-31T12:14:17;102431.94;;;24.36;65.99
21111;BME280;10713;51.912;4.494;2023-05-31T12:16:43;102430.00;;;24.38;66.96
21111;BME280;10713;51.912;4.494;2023-05-31T12:19:12;102434.97;;;24.32;68.07
21111;BME280;10713;51.912;4.494;2023-05-31T12:21:38;102422.75;;;23.76;71.29
21111;BME280;10713;51.912;4.494;2023-05-31T12:24:10;102417.31;;;23.89;71.00
21111;BME280;10713;51.912;4.494;2023-05-31T12:26:36;102412.47;;;24.07;68.33
21111;BME280;10713;51.912;4.494;2023-05-31T12:29:02;102419.22;;;24.25;67.62
21111;BME280;10713;51.912;4.494;2023-05-31T12:31:27;102411.44;;;24.34;66.87
21111;BME280;10713;51.912;4.494;2023-05-31T12:36:42;102406.25;;;24.43;66.81
21111;BME280;10713;51.912;4.494;2023-05-31T12:39:09;102410.78;;;24.43;66.70
21111;BME280;10713;51.912;4.494;2023-05-31T12:41:36;102410.13;;;24.52;66.29
21111;BME280;10713;51.912;4.494;2023-05-31T12:44:02;102405.50;;;24.28;66.62
21111;BME280;10713;51.912;4.494;2023-05-31T12:46:27;102397.13;;;23.56;70.04
21111;BME280;10713;51.912;4.494;2023-05-31T12:48:53;102396.28;;;23.56;69.01
21111;BME280;10713;51.912;4.494;2023-05-31T12:51:22;102397.06;;;23.05;67.31
21111;BME280;10713;51.912;4.494;2023-05-31T12:53:48;102393.72;;;23.02;67.77
21111;BME280;10713;51.912;4.494;2023-05-31T12:56:15;102383.66;;;23.31;67.70
21111;BME280;10713;51.912;4.494;2023-05-31T12:58:41;102388.84;;;23.47;66.94
21111;BME280;10713;51.912;4.494;2023-05-31T13:01:07;102377.94;;;23.48;67.60
21111;BME280;10713;51.912;4.494;2023-05-31T13:03:33;102376.34;;;23.71;66.72
21111;BME280;10713;51.912;4.494;2023-05-31T13:05:58;102365.47;;;23.73;66.93